createdAt,value
2019-03-11T00:02:22.781Z,82.98
2019-03-11T00:04:51.864Z,82.93
2019-03-11T00:07:20.934Z,82.93
2019-03-11T00:09:50.015Z,82.60
2019-03-11T00:12:19.075Z,82.61
2019-03-11T00:14:48.083Z,82.77
2019-03-11T00:17:17.144Z,82.97
2019-03-11T00:19:46.223Z,83.13
2019-03-11T00:22:15.293Z,83.03
2019-03-11T00:24:44.445Z,83.20
2019-03-11T00:27:13.435Z,83.43
2019-03-11T00:29:42.511Z,83.65
2019-03-11T00:32:11.575Z,83.94
2019-03-11T00:34:40.673Z,83.62
2019-03-11T00:37:09.737Z,83.92
2019-03-11T00:39:38.832Z,84.21
2019-03-11T00:42:07.813Z,84.10
2019-03-11T00:44:36.889Z,84.28
2019-03-11T00:47:05.944Z,84.34
2019-03-11T00:49:35.022Z,84.23
2019-03-11T00:52:04.092Z,84.53
2019-03-11T00:54:33.191Z,84.55
2019-03-11T00:57:02.230Z,84.75
2019-03-11T00:59:31.315Z,84.70
2019-03-11T01:02:00.395Z,84.87
2019-03-11T01:04:29.485Z,84.86
2019-03-11T01:06:58.548Z,84.85
2019-03-11T01:09:27.620Z,84.79
2019-03-11T01:11:56.678Z,84.77
2019-03-11T01:14:25.689Z,84.63
2019-03-11T01:16:54.760Z,84.63
2019-03-11T01:19:23.843Z,84.64
2019-03-11T01:21:52.826Z,84.61
2019-03-11T01:24:21.905Z,84.58
2019-03-11T01:26:50.962Z,84.36
2019-03-11T01:29:20.046Z,84.56
2019-03-11T01:31:49.103Z,84.55
2019-03-11T01:34:18.192Z,84.53
2019-03-11T01:36:47.247Z,84.50
2019-03-11T01:39:16.339Z,84.39
2019-03-11T01:41:45.320Z,84.33
2019-03-11T01:44:14.402Z,84.12
2019-03-11T01:46:43.473Z,83.86
2019-03-11T01:49:12.499Z,83.54
2019-03-11T01:51:41.478Z,83.06
2019-03-11T01:54:10.570Z,82.86
2019-03-11T01:56:39.628Z,82.67
2019-03-11T01:59:08.719Z,82.03
2019-03-11T02:01:37.816Z,81.84
2019-03-11T02:04:06.914Z,81.50
2019-03-11T02:06:35.962Z,81.43
2019-03-11T02:09:05.503Z,81.19
2019-03-11T02:11:34.564Z,80.85
2019-03-11T02:14:03.756Z,80.73
2019-03-11T02:16:32.817Z,80.38
2019-03-11T02:19:02.001Z,80.01
2019-03-11T02:21:31.069Z,80.15
2019-03-11T02:24:00.165Z,79.64
2019-03-11T02:26:29.233Z,79.32
2019-03-11T02:28:58.310Z,79.24
2019-03-11T02:31:27.378Z,79.02
2019-03-11T02:33:56.471Z,78.90
2019-03-11T02:36:25.710Z,78.83
2019-03-11T02:38:54.794Z,78.57
2019-03-11T02:41:23.861Z,78.27
2019-03-11T02:43:52.945Z,78.33
2019-03-11T02:46:21.921Z,78.04
2019-03-11T02:48:50.937Z,77.90
2019-03-11T02:51:20.009Z,77.54
2019-03-11T02:53:49.097Z,77.22
2019-03-11T02:56:18.171Z,77.28
2019-03-11T02:58:47.228Z,77.11
2019-03-11T03:01:53.998Z,77.07
2019-03-11T03:04:27.203Z,77.00
2019-03-11T03:06:56.257Z,76.65
2019-03-11T03:09:25.367Z,76.64
2019-03-11T03:11:54.444Z,76.63
2019-03-11T03:14:23.511Z,76.65
2019-03-11T03:16:52.573Z,76.47
2019-03-11T03:19:21.677Z,76.42
2019-03-11T03:21:50.736Z,76.38
2019-03-11T03:24:19.832Z,76.09
2019-03-11T03:26:48.899Z,76.00
2019-03-11T03:29:17.993Z,76.00
2019-03-11T03:31:47.061Z,75.88
2019-03-11T03:34:16.146Z,75.86
2019-03-11T03:36:45.160Z,75.79
2019-03-11T03:39:14.249Z,75.60
2019-03-11T03:41:43.315Z,75.60
2019-03-11T03:44:12.416Z,75.55
2019-03-11T03:46:41.548Z,75.52
2019-03-11T03:49:10.620Z,75.53
2019-03-11T03:51:39.711Z,75.57
2019-03-11T03:54:08.776Z,75.62
2019-03-11T03:56:37.876Z,75.58
2019-03-11T03:59:06.955Z,75.63
2019-03-11T04:01:36.124Z,75.63
2019-03-11T04:04:05.223Z,75.62
2019-03-11T04:06:34.306Z,75.61
2019-03-11T04:09:03.566Z,75.61
2019-03-11T04:11:32.656Z,75.60
2019-03-11T04:14:01.748Z,75.56
2019-03-11T04:16:30.839Z,75.56
2019-03-11T04:18:59.911Z,75.77
2019-03-11T04:21:29.016Z,75.97
2019-03-11T04:23:58.091Z,76.20
2019-03-11T04:26:31.228Z,76.39
2019-03-11T04:29:00.316Z,76.38
2019-03-11T04:31:29.436Z,76.44
2019-03-11T04:33:58.517Z,76.42
2019-03-11T04:36:27.606Z,76.39
2019-03-11T04:38:56.673Z,76.43
2019-03-11T04:41:25.771Z,76.36
2019-03-11T04:43:54.847Z,76.50
2019-03-11T04:46:23.934Z,76.55
2019-03-11T04:48:53.000Z,76.48
2019-03-11T04:51:22.090Z,76.51
2019-03-11T04:53:51.163Z,76.67
2019-03-11T04:56:20.258Z,76.71
2019-03-11T04:58:49.267Z,77.11
2019-03-11T05:01:18.363Z,77.99
2019-03-11T05:03:47.455Z,78.84
2019-03-11T05:06:16.488Z,78.95
2019-03-11T05:08:45.556Z,79.97
2019-03-11T05:11:14.642Z,80.51
2019-03-11T05:13:43.700Z,80.89
2019-03-11T05:16:12.803Z,81.01
2019-03-11T05:18:41.863Z,80.98
2019-03-11T05:21:10.947Z,81.02
2019-03-11T05:23:40.018Z,81.40
2019-03-11T05:26:09.110Z,81.37
2019-03-11T05:28:38.179Z,81.38
2019-03-11T05:31:07.263Z,81.77
2019-03-11T05:33:36.335Z,81.63
2019-03-11T05:36:05.412Z,81.86
2019-03-11T05:38:34.490Z,81.79
2019-03-11T05:41:03.579Z,81.63
2019-03-11T05:43:32.576Z,81.70
2019-03-11T05:46:01.655Z,81.90
2019-03-11T05:48:30.642Z,81.85
2019-03-11T05:50:59.730Z,82.23
2019-03-11T05:53:28.726Z,82.24
2019-03-11T05:56:00.801Z,82.44
2019-03-11T05:58:29.900Z,82.30
2019-03-11T06:00:58.984Z,82.37
2019-03-11T06:03:28.067Z,82.25
2019-03-11T06:05:58.827Z,82.22
2019-03-11T06:08:28.212Z,82.12
2019-03-11T06:10:57.299Z,82.31
2019-03-11T06:13:35.600Z,82.24
2019-03-11T06:15:58.362Z,82.19
2019-03-11T06:18:45.228Z,82.18
2019-03-11T06:21:33.267Z,82.24
2019-03-11T06:24:02.331Z,82.40
2019-03-11T06:26:31.411Z,82.60
2019-03-11T06:29:00.467Z,82.17
2019-03-11T06:31:29.544Z,82.24
2019-03-11T06:33:58.536Z,82.39
2019-03-11T06:36:27.619Z,82.39
2019-03-11T06:39:05.213Z,82.50
2019-03-11T06:41:27.496Z,82.65
2019-03-11T06:43:56.546Z,82.69
2019-03-11T06:46:25.617Z,82.58
2019-03-11T06:48:54.679Z,82.59
2019-03-11T06:51:23.927Z,82.71
2019-03-11T06:53:52.966Z,82.83
2019-03-11T06:56:22.048Z,82.99
2019-03-11T06:58:51.131Z,83.06
2019-03-11T07:01:20.227Z,83.09
2019-03-11T07:03:49.245Z,83.29
2019-03-11T07:06:18.295Z,83.31
2019-03-11T07:08:47.310Z,83.23
2019-03-11T07:11:16.385Z,82.52
2019-03-11T07:13:45.448Z,82.54
2019-03-11T07:16:14.525Z,82.49
2019-03-11T07:18:43.586Z,82.33
2019-03-11T07:21:12.670Z,81.98
2019-03-11T07:23:41.727Z,81.65
2019-03-11T07:26:10.806Z,81.69
2019-03-11T07:28:39.868Z,81.56
2019-03-11T07:31:08.956Z,81.02
2019-03-11T07:33:37.953Z,80.91
2019-03-11T07:36:07.239Z,80.40
2019-03-11T07:38:36.301Z,80.22
2019-03-11T07:41:05.382Z,79.87
2019-03-11T07:43:34.556Z,79.46
2019-03-11T07:46:03.620Z,79.60
2019-03-11T07:48:32.633Z,79.41
2019-03-11T07:51:01.712Z,79.35
2019-03-11T07:53:30.809Z,78.71
2019-03-11T07:55:59.819Z,77.92
2019-03-11T07:58:28.750Z,78.18
2019-03-11T08:00:57.834Z,77.87
2019-03-11T08:03:26.919Z,77.32
2019-03-11T08:05:55.995Z,77.17
2019-03-11T08:08:25.073Z,76.29
2019-03-11T08:10:54.149Z,76.51
2019-03-11T08:13:23.227Z,76.29
2019-03-11T08:15:52.289Z,75.67
2019-03-11T08:18:21.296Z,75.60
2019-03-11T08:20:50.359Z,75.72
2019-03-11T08:23:19.459Z,75.26
2019-03-11T08:25:48.516Z,75.18
2019-03-11T08:28:17.598Z,74.25
2019-03-11T08:30:46.979Z,71.80
2019-03-11T08:33:16.054Z,71.15
2019-03-11T08:35:45.126Z,71.43
2019-03-11T08:38:14.147Z,70.30
2019-03-11T08:40:43.214Z,69.58
2019-03-11T08:43:12.279Z,68.96
2019-03-11T08:45:41.273Z,68.87
2019-03-11T08:48:10.376Z,69.49
2019-03-11T08:50:39.365Z,69.17
2019-03-11T08:53:08.450Z,68.35
2019-03-11T08:55:37.515Z,68.78
2019-03-11T08:58:06.590Z,67.70
2019-03-11T09:00:35.663Z,67.55
2019-03-11T09:03:04.760Z,67.55
2019-03-11T09:05:33.815Z,66.73
2019-03-11T09:08:02.894Z,66.93
2019-03-11T09:10:31.961Z,67.18
2019-03-11T09:13:00.992Z,67.92
2019-03-11T09:15:30.066Z,65.92
2019-03-11T09:17:59.172Z,65.76
2019-03-11T09:20:28.225Z,66.40
2019-03-11T09:22:57.237Z,66.06
2019-03-11T09:25:26.339Z,64.95
2019-03-11T09:27:55.406Z,65.40
2019-03-11T09:30:24.774Z,64.68
2019-03-11T09:32:53.870Z,66.19
2019-03-11T09:35:22.953Z,65.14
2019-03-11T09:37:52.036Z,64.70
2019-03-11T09:40:21.108Z,64.86
2019-03-11T09:42:50.290Z,63.95
2019-03-11T09:45:19.559Z,64.78
2019-03-11T09:47:48.660Z,64.40
2019-03-11T09:50:18.172Z,64.32
2019-03-11T09:52:47.264Z,63.85
2019-03-11T09:55:16.337Z,64.34
2019-03-11T09:57:45.431Z,64.26
2019-03-11T10:00:16.925Z,64.68
2019-03-11T10:02:52.350Z,64.63
2019-03-11T10:05:16.813Z,64.61
2019-03-11T10:07:45.928Z,64.56
2019-03-11T10:10:15.873Z,65.14
2019-03-11T10:12:44.889Z,65.42
2019-03-11T10:15:14.837Z,66.03
2019-03-11T10:17:43.948Z,65.65
2019-03-11T10:20:13.675Z,65.16
2019-03-11T10:22:42.979Z,65.75
2019-03-11T10:25:12.364Z,65.54
2019-03-11T10:27:41.509Z,65.54
2019-03-11T10:30:12.413Z,65.77
2019-03-11T10:32:41.509Z,65.18
2019-03-11T10:35:30.267Z,65.47
2019-03-11T10:37:42.847Z,65.12
2019-03-11T10:40:14.331Z,65.68
2019-03-11T10:42:43.427Z,66.23
2019-03-11T10:45:12.865Z,66.48
2019-03-11T10:47:41.974Z,65.21
2019-03-11T10:50:11.512Z,65.72
2019-03-11T10:52:40.594Z,65.42
2019-03-11T10:55:11.150Z,65.15
2019-03-11T10:57:40.210Z,64.96
2019-03-11T11:00:12.915Z,64.78
2019-03-11T11:02:42.047Z,65.05
2019-03-11T11:05:11.234Z,65.25
2019-03-11T11:07:40.299Z,65.73
2019-03-11T11:10:09.705Z,65.51
2019-03-11T11:12:38.783Z,65.33
2019-03-11T11:15:16.128Z,65.47
2019-03-11T11:17:45.491Z,65.68
2019-03-11T11:20:15.165Z,65.57
2019-03-11T11:22:44.242Z,65.90
2019-03-11T11:25:15.470Z,65.78
2019-03-11T11:27:44.536Z,64.62
2019-03-11T11:30:16.453Z,65.27
2019-03-11T11:32:45.517Z,65.74
2019-03-11T11:35:16.063Z,65.81
2019-03-11T11:37:45.534Z,66.13
2019-03-11T11:40:16.710Z,66.55
2019-03-11T11:42:45.768Z,66.82
2019-03-11T11:45:16.735Z,65.74
2019-03-11T11:47:45.802Z,66.87
2019-03-11T11:50:16.685Z,68.07
2019-03-11T11:52:45.854Z,68.66
2019-03-11T11:55:15.156Z,69.54
2019-03-11T11:57:44.231Z,69.33
2019-03-11T12:00:19.637Z,69.35
2019-03-11T12:02:48.726Z,69.27
2019-03-11T12:05:18.260Z,69.25
2019-03-11T12:07:47.339Z,68.62
2019-03-11T12:10:17.522Z,68.67
2019-03-11T12:12:46.608Z,67.91
2019-03-11T12:15:15.690Z,67.12
2019-03-11T12:17:44.754Z,67.51
2019-03-11T12:20:16.543Z,68.27
2019-03-11T12:22:45.673Z,69.12
2019-03-11T12:25:16.192Z,69.11
2019-03-11T12:27:53.734Z,70.02
2019-03-11T12:30:20.938Z,69.66
2019-03-11T12:32:50.025Z,68.87
2019-03-11T12:35:19.646Z,67.59
2019-03-11T12:37:48.726Z,68.00
2019-03-11T12:40:17.952Z,67.76
2019-03-11T12:42:47.119Z,67.63
2019-03-11T12:45:16.260Z,67.87
2019-03-11T12:47:45.325Z,67.73
2019-03-11T12:50:16.163Z,67.67
2019-03-11T12:52:45.225Z,67.86
2019-03-11T12:55:14.315Z,68.05
2019-03-11T12:57:43.392Z,67.24
2019-03-11T13:00:14.816Z,67.45
2019-03-11T13:02:43.897Z,67.26
2019-03-11T13:05:13.404Z,67.94
2019-03-11T13:07:42.477Z,67.92
2019-03-11T13:10:13.963Z,68.24
2019-03-11T13:12:43.024Z,69.07
2019-03-11T13:15:12.620Z,69.07
2019-03-11T13:17:41.717Z,70.21
2019-03-11T13:20:14.219Z,70.20
2019-03-11T13:22:43.286Z,69.73
2019-03-11T13:25:12.391Z,68.97
2019-03-11T13:27:41.387Z,69.36
2019-03-11T13:30:11.752Z,69.02
2019-03-11T13:32:40.816Z,68.58
2019-03-11T13:35:09.893Z,68.27
2019-03-11T13:37:38.987Z,67.68
2019-03-11T13:40:08.332Z,68.28
2019-03-11T13:42:37.419Z,66.89
2019-03-11T13:45:06.659Z,66.78
2019-03-11T13:47:35.751Z,66.36
2019-03-11T13:50:06.413Z,64.87
2019-03-11T13:52:35.518Z,64.11
2019-03-11T13:55:10.058Z,62.53
2019-03-11T13:57:36.049Z,63.00
2019-03-11T14:00:05.580Z,63.28
2019-03-11T14:02:34.695Z,64.18
2019-03-11T14:05:03.783Z,63.62
2019-03-11T14:07:32.875Z,62.31
2019-03-11T14:10:01.954Z,61.82
2019-03-11T14:12:31.061Z,60.62
2019-03-11T14:15:00.353Z,60.61
2019-03-11T14:17:29.420Z,60.75
2019-03-11T14:19:58.494Z,61.38
2019-03-11T14:22:27.603Z,60.05
2019-03-11T14:24:56.677Z,59.50
2019-03-11T14:27:25.770Z,59.71
2019-03-11T14:29:54.843Z,59.46
2019-03-11T14:32:23.929Z,60.08
2019-03-11T14:34:52.908Z,60.79
2019-03-11T14:37:21.935Z,61.65
2019-03-11T14:39:51.010Z,62.32
2019-03-11T14:42:20.109Z,63.27
2019-03-11T14:44:49.195Z,62.58
2019-03-11T14:47:18.294Z,62.80
2019-03-11T14:49:47.354Z,62.38
2019-03-11T14:52:16.455Z,62.93
2019-03-11T14:54:45.545Z,62.52
2019-03-11T14:57:14.637Z,63.14
2019-03-11T14:59:44.355Z,63.65
2019-03-11T15:02:13.588Z,64.01
2019-03-11T15:04:42.698Z,63.75
2019-03-11T15:07:11.802Z,64.02
2019-03-11T15:09:51.048Z,64.17
2019-03-11T15:12:11.619Z,64.24
2019-03-11T15:14:40.693Z,63.87
2019-03-11T15:17:09.797Z,64.23
2019-03-11T15:19:38.866Z,65.05
2019-03-11T15:22:07.963Z,65.62
2019-03-11T15:24:37.027Z,67.07
2019-03-11T15:27:06.105Z,68.20
2019-03-11T15:29:35.181Z,69.78
2019-03-11T15:32:04.279Z,69.80
2019-03-11T15:34:33.354Z,70.62
2019-03-11T15:37:02.438Z,71.46
2019-03-11T15:39:31.492Z,71.94
2019-03-11T15:42:01.433Z,72.45
2019-03-11T15:44:30.502Z,72.83
2019-03-11T15:46:59.674Z,73.09
2019-03-11T15:49:28.712Z,73.13
2019-03-11T15:51:57.722Z,73.70
2019-03-11T15:54:26.712Z,74.17
2019-03-11T15:56:55.863Z,74.17
2019-03-11T15:59:24.966Z,74.37
2019-03-11T16:01:54.028Z,74.65
2019-03-11T16:04:23.132Z,74.79
2019-03-11T16:06:52.220Z,75.10
2019-03-11T16:09:21.198Z,75.39
2019-03-11T16:11:50.268Z,75.50
2019-03-11T16:14:19.343Z,75.62
2019-03-11T16:16:48.431Z,75.84
2019-03-11T16:19:17.569Z,75.79
2019-03-11T16:21:46.563Z,76.03
2019-03-11T16:24:15.658Z,76.06
2019-03-11T16:26:44.716Z,76.19
2019-03-11T16:29:13.799Z,76.23
2019-03-11T16:31:42.859Z,76.32
2019-03-11T16:34:11.943Z,76.41
2019-03-11T16:36:41.023Z,76.50
2019-03-11T16:39:10.118Z,76.36
2019-03-11T16:41:39.241Z,76.53
2019-03-11T16:44:08.333Z,76.58
2019-03-11T16:46:37.413Z,76.74
2019-03-11T16:49:06.495Z,76.98
2019-03-11T16:51:35.554Z,77.40
2019-03-11T16:54:04.651Z,78.18
2019-03-11T16:56:36.971Z,78.28
2019-03-11T16:59:06.145Z,78.27
2019-03-11T17:01:35.129Z,78.31
2019-03-11T17:04:04.256Z,78.71
2019-03-11T17:06:33.317Z,78.59
2019-03-11T17:09:02.327Z,78.66
2019-03-11T17:11:31.315Z,78.71
2019-03-11T17:14:00.402Z,78.79
2019-03-11T17:16:29.543Z,78.84
2019-03-11T17:18:58.623Z,78.80
2019-03-11T17:21:27.686Z,78.98
2019-03-11T17:23:56.704Z,78.77
2019-03-11T17:26:25.767Z,78.58
2019-03-11T17:28:54.895Z,78.88
2019-03-11T17:31:23.959Z,78.75
2019-03-11T17:33:53.049Z,79.04
2019-03-11T17:36:22.117Z,79.17
2019-03-11T17:38:51.198Z,79.31
2019-03-11T17:41:20.249Z,79.42
2019-03-11T17:43:49.353Z,79.56
2019-03-11T17:46:18.327Z,79.73
2019-03-11T17:48:47.392Z,79.69
2019-03-11T17:51:16.455Z,79.59
2019-03-11T17:53:45.456Z,79.70
2019-03-11T17:56:14.596Z,79.66
2019-03-11T17:58:43.700Z,79.71
2019-03-11T18:01:12.868Z,79.69
2019-03-11T18:03:42.019Z,79.87
2019-03-11T18:06:12.168Z,79.96
2019-03-11T18:08:41.234Z,80.26
2019-03-11T18:11:10.302Z,80.19
2019-03-11T18:13:39.375Z,80.24
2019-03-11T18:16:08.516Z,80.27
2019-03-11T18:18:37.604Z,80.32
2019-03-11T18:21:07.005Z,80.27
2019-03-11T18:23:35.995Z,80.23
2019-03-11T18:26:05.047Z,80.19
2019-03-11T18:28:34.129Z,80.21
2019-03-11T18:31:03.197Z,80.26
2019-03-11T18:33:32.273Z,80.30
2019-03-11T18:36:01.334Z,80.35
2019-03-11T18:38:30.420Z,80.36
2019-03-11T18:40:59.564Z,80.37
2019-03-11T18:43:28.744Z,80.42
2019-03-11T18:46:00.229Z,80.48
2019-03-11T18:48:28.678Z,80.52
2019-03-11T18:50:57.776Z,80.49
2019-03-11T18:53:26.889Z,80.53
2019-03-11T18:55:55.985Z,80.61
2019-03-11T18:58:25.043Z,80.58
2019-03-11T19:00:54.144Z,80.72
2019-03-11T19:03:23.162Z,80.81
2019-03-11T19:05:52.211Z,80.85
2019-03-11T19:08:21.365Z,80.94
2019-03-11T19:10:50.480Z,80.99
2019-03-11T19:13:19.517Z,81.09
2019-03-11T19:15:48.545Z,81.18
2019-03-11T19:18:17.682Z,81.24
2019-03-11T19:20:46.730Z,81.31
2019-03-11T19:23:15.790Z,81.44
2019-03-11T19:25:44.890Z,81.58
2019-03-11T19:28:14.241Z,81.71
2019-03-11T19:30:43.313Z,81.78
2019-03-11T19:33:12.458Z,81.80
2019-03-11T19:35:41.639Z,81.90
2019-03-11T19:38:10.769Z,82.00
2019-03-11T19:40:39.916Z,82.10
2019-03-11T19:43:09.045Z,82.17
2019-03-11T19:45:38.126Z,82.28
2019-03-11T19:48:07.120Z,82.33
2019-03-11T19:50:36.194Z,82.30
2019-03-11T19:53:05.289Z,82.37
2019-03-11T19:55:34.350Z,82.45
2019-03-11T19:58:03.400Z,82.56
2019-03-11T20:00:32.543Z,82.65
2019-03-11T20:03:01.682Z,82.73
2019-03-11T20:05:30.757Z,82.78
2019-03-11T20:07:59.909Z,82.75
2019-03-11T20:10:28.981Z,82.85
2019-03-11T20:12:58.052Z,82.92
2019-03-11T20:15:27.165Z,82.97
2019-03-11T20:17:56.213Z,82.99
2019-03-11T20:20:25.261Z,82.88
2019-03-11T20:22:54.371Z,82.96
2019-03-11T20:25:25.359Z,83.02
2019-03-11T20:27:54.399Z,83.10
2019-03-11T20:30:24.145Z,83.16
2019-03-11T20:32:53.259Z,83.21
2019-03-11T20:35:22.383Z,83.24
2019-03-11T20:37:51.501Z,83.29
2019-03-11T20:40:20.688Z,83.26
2019-03-11T20:42:49.738Z,83.26
2019-03-11T20:45:18.922Z,83.21
2019-03-11T20:47:47.987Z,83.19
2019-03-11T20:50:17.228Z,83.19
2019-03-11T20:52:46.304Z,83.17
2019-03-11T20:55:15.487Z,83.12
2019-03-11T20:57:44.624Z,83.23
2019-03-11T21:00:18.821Z,83.11
2019-03-11T21:02:48.017Z,83.27
2019-03-11T21:05:18.304Z,83.24
2019-03-11T21:07:47.369Z,83.31
2019-03-11T21:10:16.720Z,83.26
2019-03-11T21:12:45.860Z,83.18
2019-03-11T21:15:15.076Z,83.07
2019-03-11T21:17:44.138Z,82.82
2019-03-11T21:20:14.250Z,82.54
2019-03-11T21:22:43.485Z,82.68
2019-03-11T21:25:14.250Z,82.72
2019-03-11T21:27:43.310Z,82.76
2019-03-11T21:30:14.852Z,82.57
2019-03-11T21:32:43.886Z,82.68
2019-03-11T21:35:13.317Z,82.78
2019-03-11T21:37:42.413Z,82.74
2019-03-11T21:40:13.219Z,82.75
2019-03-11T21:42:42.285Z,82.77
2019-03-11T21:45:12.276Z,82.75
2019-03-11T21:47:41.323Z,82.78
2019-03-11T21:50:14.416Z,82.87
2019-03-11T21:52:43.487Z,82.86
2019-03-11T21:55:12.615Z,82.93
2019-03-11T21:57:41.726Z,82.96
2019-03-11T22:00:13.560Z,82.98
2019-03-11T22:02:42.569Z,82.92
2019-03-11T22:05:11.700Z,82.64
2019-03-11T22:07:40.724Z,82.80
2019-03-11T22:10:10.591Z,82.78
2019-03-11T22:12:39.646Z,82.81
2019-03-11T22:15:09.816Z,83.00
2019-03-11T22:17:38.877Z,82.87
2019-03-11T22:20:09.229Z,82.94
2019-03-11T22:22:38.287Z,83.02
2019-03-11T22:25:07.920Z,83.15
2019-03-11T22:27:36.992Z,83.25
2019-03-11T22:30:07.134Z,83.29
2019-03-11T22:32:36.216Z,83.34
2019-03-11T22:35:12.665Z,83.35
2019-03-11T22:37:36.424Z,83.46
2019-03-11T22:40:06.359Z,83.58
2019-03-11T22:42:35.348Z,83.54
2019-03-11T22:45:04.884Z,83.49
2019-03-11T22:47:33.962Z,83.52
2019-03-11T22:50:03.024Z,83.45
2019-03-11T22:52:32.116Z,83.24
2019-03-11T22:55:01.176Z,83.05
2019-03-11T22:57:30.251Z,82.80
2019-03-11T22:59:59.305Z,82.79
2019-03-11T23:02:28.485Z,82.50
2019-03-11T23:04:57.570Z,82.35
2019-03-11T23:07:26.645Z,82.33
2019-03-11T23:09:55.718Z,82.19
2019-03-11T23:12:24.803Z,82.20
2019-03-11T23:14:53.868Z,82.26
2019-03-11T23:17:22.869Z,82.31
2019-03-11T23:19:51.998Z,82.42
2019-03-11T23:22:21.094Z,82.49
2019-03-11T23:24:50.150Z,82.53
2019-03-11T23:27:19.226Z,82.61
2019-03-11T23:29:48.284Z,82.66
2019-03-11T23:32:17.367Z,82.69
2019-03-11T23:34:46.434Z,82.68
2019-03-11T23:37:15.522Z,82.58
2019-03-11T23:39:44.433Z,82.63
2019-03-11T23:42:13.517Z,82.63
2019-03-11T23:44:42.578Z,82.68
2019-03-11T23:47:11.676Z,82.71
2019-03-11T23:49:40.736Z,82.66
2019-03-11T23:52:09.819Z,82.73
2019-03-11T23:54:38.805Z,82.80
2019-03-11T23:57:07.908Z,82.79
2019-03-11T23:59:36.968Z,82.85
